Accueil
METAR-TAF:

METAR-TAF

Aéroports :

Air Force Base Langebaanweg

Langebaan, Afrique du Sud

latitude: 32-58-08S, longitude: 018-09-55E, altitude: 33 m

Observation

Le bulletin a été fait il y a 1 heure et 21 minutes, à 14:00 UTC
Vent 12 kt de sud/sud-ouest
Température 26°C
Humidité 24%
Pression 1015 hPa

METAR: FALW 121400Z AUTO 20012KT //// // ////// 26/04 Q1015

Heure: 17:21 (15:21 UTC)


TAF: absent

Observations et prévisions météorologiques de plus de 4000 aéroports (messages METAR et TAF).

Les stations disponibles sont représentées par des disques jaunes et rouges sur la carte.

Passer la souris dessus pour voir le nom de la station.

Cliquer dessus pour voir les observations et prévisions météorologiques.

Pour changer de carte: cliquez sur les boutons verts avec une croix noire pour zoomer, sur le bouton vert avec un tiret pour effectuer un zoom arrière, ou sur les flèches vertes pour les cartes adjacentes.


METAR-TAF: